Time;durP1;ratioP1;P1;durP2;ratioP2;P2;SDS_P1;SDS_P2;PMS_P1;PMS_P2;Temp;Humidity;BMP_temperature;BMP_pressure;BME280_temperature;BME280_humidity;BME280_pressure;Samples;Min_cycle;Max_cycle;Signal;HPM_P1;HPM_P2
2023/03/13 00:00:52;;;;;;;5.35;3.30;;;;;;;19.74;48.70;96280.88;10281313;28;20046;-77
2023/03/13 00:06:11;;;;;;;4.22;3.08;;;;;;;19.73;48.80;96289.31;10281093;28;20042;-77
2023/03/13 00:11:31;;;;;;;3.45;2.72;;;;;;;19.73;48.81;96289.31;10308181;28;20050;-78
2023/03/13 00:16:51;;;;;;;3.17;2.80;;;;;;;19.73;48.63;96289.31;10308041;28;20491;-78
2023/03/13 00:22:10;;;;;;;4.53;3.00;;;;;;;19.71;48.64;96292.34;10280519;28;20043;-78
2023/03/13 00:27:33;;;;;;;3.90;3.30;;;;;;;19.71;48.73;96288.81;10280436;28;20170;-78
2023/03/13 00:32:53;;;;;;;4.03;3.00;;;;;;;19.68;48.52;96293.00;10307394;28;20047;-78
2023/03/13 00:38:12;;;;;;;3.35;2.72;;;;;;;19.68;48.37;96284.91;10293606;28;20410;-78
2023/03/13 00:43:32;;;;;;;3.42;2.65;;;;;;;19.67;48.48;96285.22;10292877;28;20488;-78
2023/03/13 00:48:53;;;;;;;3.20;2.80;;;;;;;19.66;48.51;96279.03;10279801;28;20043;-78
2023/03/13 00:54:12;;;;;;;3.17;2.63;;;;;;;19.64;48.48;96270.47;10295020;28;20062;-78
2023/03/13 00:59:32;;;;;;;4.13;2.80;;;;;;;19.63;48.44;96273.50;10306415;28;20406;-78
2023/03/13 01:04:53;;;;;;;3.30;2.75;;;;;;;19.62;48.44;96272.72;10306289;28;20106;-78
2023/03/13 01:10:12;;;;;;;3.67;2.70;;;;;;;19.62;48.44;96271.91;10292382;28;20482;-78
2023/03/13 01:15:35;;;;;;;3.72;2.40;;;;;;;19.61;48.57;96275.75;10292423;28;20047;-78
2023/03/13 01:20:54;;;;;;;2.75;2.45;;;;;;;19.59;48.41;96259.09;10292151;28;20501;-78
2023/03/13 01:26:14;;;;;;;4.80;2.70;;;;;;;19.59;48.37;96267.22;10292040;28;20487;-78
2023/03/13 01:31:35;;;;;;;3.17;2.72;;;;;;;19.56;48.48;96269.47;10292011;28;20174;-78
2023/03/13 01:36:55;;;;;;;3.67;2.53;;;;;;;19.55;48.28;96257.06;10305388;28;20043;-78
2023/03/13 01:42:14;;;;;;;3.70;2.22;;;;;;;19.55;48.41;96257.06;10278289;28;20431;-78
2023/03/13 01:47:34;;;;;;;2.80;2.40;;;;;;;19.53;48.34;96247.72;10278170;28;20094;-78
2023/03/13 01:53:03;;;;;;;2.85;2.40;;;;;;;19.51;48.35;96245.34;10282994;28;20338;-78
2023/03/13 01:58:25;;;;;;;2.70;2.17;;;;;;;19.51;48.28;96245.34;10283923;28;20046;-77
2023/03/13 02:03:46;;;;;;;3.13;2.38;;;;;;;19.49;48.29;96231.41;10299346;28;20038;-77
2023/03/13 02:09:09;;;;;;;2.58;2.13;;;;;;;19.49;48.17;96233.31;10299466;28;20043;-78
2023/03/13 02:14:32;;;;;;;3.05;2.50;;;;;;;19.47;48.01;96220.16;10312670;28;20118;-78
2023/03/13 02:19:52;;;;;;;2.92;2.40;;;;;;;19.45;48.19;96211.59;10298790;28;20065;-78
2023/03/13 02:25:24;;;;;;;2.60;2.25;;;;;;;19.44;48.15;96218.09;10298640;28;20047;-78
2023/03/13 02:30:49;;;;;;;3.28;2.30;;;;;;;19.44;48.25;96228.13;10285166;28;20047;-78
2023/03/13 02:36:10;;;;;;;3.08;2.40;;;;;;;19.43;48.05;96224.66;10284705;28;20043;-78
2023/03/13 02:41:30;;;;;;;2.53;2.10;;;;;;;19.41;48.14;96226.91;10298085;28;20047;-78
2023/03/13 02:46:51;;;;;;;2.22;1.77;;;;;;;19.40;48.29;96238.03;10297855;28;20043;-78
2023/03/13 02:52:14;;;;;;;3.08;2.22;;;;;;;19.40;48.14;96227.22;10291449;28;20063;-78
2023/03/13 02:57:36;;;;;;;2.67;2.20;;;;;;;19.38;48.13;96226.78;10297449;28;20050;-78
2023/03/13 03:02:56;;;;;;;2.38;2.03;;;;;;;19.37;48.03;96228.69;10310795;28;20070;-78
2023/03/13 03:08:16;;;;;;;2.60;1.95;;;;;;;19.34;48.13;96230.13;10283412;28;20505;-78
2023/03/13 03:13:36;;;;;;;2.80;2.33;;;;;;;19.34;48.30;96221.25;10296964;28;20097;-78
2023/03/13 03:18:57;;;;;;;2.85;2.08;;;;;;;19.33;48.27;96217.00;10332730;28;20066;-78
2023/03/13 03:24:16;;;;;;;2.10;1.90;;;;;;;19.32;48.04;96204.59;10336587;28;20053;-77
2023/03/13 03:29:36;;;;;;;2.22;2.03;;;;;;;19.31;48.11;96203.03;10351182;28;20046;-78
2023/03/13 03:34:57;;;;;;;2.45;2.00;;;;;;;19.30;48.07;96209.56;10336398;28;20089;-77
2023/03/13 03:40:17;;;;;;;2.00;1.80;;;;;;;19.28;48.01;96198.28;10349688;28;20410;-78
2023/03/13 03:45:37;;;;;;;2.55;2.00;;;;;;;19.27;47.90;96188.63;10335917;28;20059;-78
2023/03/13 03:50:58;;;;;;;2.25;2.00;;;;;;;19.25;48.02;96198.97;10346445;28;20060;-78
2023/03/13 03:56:18;;;;;;;2.17;1.88;;;;;;;19.23;48.08;96199.31;10335472;28;20046;-78
2023/03/13 04:01:43;;;;;;;2.15;1.92;;;;;;;19.23;48.17;96183.13;10335133;28;20046;-78
2023/03/13 04:07:03;;;;;;;2.35;2.10;;;;;;;19.22;47.99;96183.44;10348812;28;20039;-78
2023/03/13 04:12:24;;;;;;;2.17;1.83;;;;;;;19.21;48.05;96179.16;10334712;28;20114;-78
2023/03/13 04:17:46;;;;;;;2.60;1.83;;;;;;;19.20;48.10;96169.50;10333857;28;20101;-78
2023/03/13 04:23:06;;;;;;;2.03;1.88;;;;;;;19.17;47.94;96160.94;10334289;28;20042;-78
2023/03/13 04:28:26;;;;;;;2.08;1.52;;;;;;;19.16;48.01;96164.75;10348942;28;20052;-78
2023/03/13 04:33:46;;;;;;;2.83;1.90;;;;;;;19.13;47.96;96160.03;10347715;28;20418;-78
2023/03/13 04:39:16;;;;;;;2.45;1.80;;;;;;;19.13;48.04;96157.34;10335194;28;20050;-78
2023/03/13 04:44:58;;;;;;;2.90;2.00;;;;;;;19.11;47.95;96143.41;10334500;28;20064;-78
2023/03/13 04:50:37;;;;;;;2.05;1.80;;;;;;;19.11;48.10;96139.88;10345225;28;20054;-77
2023/03/13 04:56:24;;;;;;;1.98;1.70;;;;;;;19.09;47.91;96123.25;10311257;28;20446;-78
2023/03/13 05:01:50;;;;;;;1.83;1.70;;;;;;;19.07;47.85;96123.59;10333897;28;20046;-79
2023/03/13 05:07:26;;;;;;;2.10;1.58;;;;;;;19.06;47.93;96127.41;10346526;28;20053;-78
2023/03/13 05:13:13;;;;;;;1.98;1.70;;;;;;;19.05;48.21;96117.75;10322719;28;20434;-78
2023/03/13 05:18:44;;;;;;;2.75;1.65;;;;;;;19.04;48.39;96118.84;10333962;28;20045;-79
2023/03/13 05:24:22;;;;;;;1.60;1.50;;;;;;;19.05;49.03;96117.75;10346129;28;20043;-79
2023/03/13 05:29:56;;;;;;;2.17;1.60;;;;;;;19.04;48.58;96116.16;10356840;28;20288;-78
2023/03/13 05:35:29;;;;;;;1.58;1.48;;;;;;;19.05;48.50;96104.25;10350653;28;20041;-78
2023/03/13 05:41:08;;;;;;;2.10;1.60;;;;;;;19.06;48.69;96095.00;10341357;28;20450;-78
2023/03/13 05:46:54;;;;;;;1.70;1.60;;;;;;;19.05;48.67;96087.25;10320114;28;20066;-75
2023/03/13 05:52:43;;;;;;;1.90;1.67;;;;;;;19.04;48.73;96072.97;10311311;28;20111;-76
2023/03/13 05:58:35;;;;;;;4.80;1.40;;;;;;;19.05;48.70;96071.84;10344633;28;20422;-76
2023/03/13 06:04:21;;;;;;;2.92;1.48;;;;;;;19.06;48.42;96072.63;10374705;28;20038;-77
2023/03/13 06:09:41;;;;;;;8.20;2.20;;;;;;;19.06;48.44;96057.22;10384277;28;20069;-77
2023/03/13 06:15:01;;;;;;;7.32;2.47;;;;;;;19.08;48.23;96067.69;10355357;28;20046;-77
2023/03/13 06:20:42;;;;;;;8.52;3.25;;;;;;;19.09;48.31;96061.16;10382234;28;20042;-77
2023/03/13 06:26:02;;;;;;;6.30;2.50;;;;;;;19.09;48.29;96059.25;10382242;28;20038;-77
2023/03/13 06:31:21;;;;;;;7.75;3.10;;;;;;;19.11;48.20;96057.00;10381511;28;20053;-77
2023/03/13 06:36:40;;;;;;;8.95;3.17;;;;;;;19.13;48.31;96051.25;10383583;28;20049;-77
2023/03/13 06:42:00;;;;;;;8.25;3.28;;;;;;;19.15;48.12;96055.19;10372930;28;20049;-77
2023/03/13 06:47:19;;;;;;;8.55;3.80;;;;;;;19.15;48.13;96049.78;10393577;28;20046;-77
2023/03/13 06:52:38;;;;;;;8.73;3.33;;;;;;;19.18;48.19;96040.22;10357239;28;20054;-77
2023/03/13 06:57:58;;;;;;;9.35;3.15;;;;;;;19.20;48.03;96037.19;10393123;28;20042;-77
2023/03/13 07:03:17;;;;;;;8.23;3.05;;;;;;;19.23;48.05;96041.88;10377984;28;20033;-77
2023/03/13 07:08:37;;;;;;;7.18;2.78;;;;;;;19.24;47.96;96040.78;10378360;28;20378;-77
2023/03/13 07:14:00;;;;;;;8.02;3.25;;;;;;;19.26;48.06;96039.31;10392523;28;20046;-77
2023/03/13 07:19:20;;;;;;;6.80;3.13;;;;;;;19.29;48.04;96037.84;10392296;28;20429;-77
2023/03/13 07:24:39;;;;;;;5.78;2.75;;;;;;;19.30;48.15;96021.28;10391054;28;20042;-77
2023/03/13 07:29:59;;;;;;;7.47;2.70;;;;;;;19.33;48.11;96023.31;10377096;28;20038;-77
2023/03/13 07:35:18;;;;;;;6.38;2.85;;;;;;;19.36;48.12;96006.41;10391670;28;20042;-77
2023/03/13 07:40:38;;;;;;;5.55;2.55;;;;;;;19.39;47.95;96002.25;10390385;28;20092;-77
2023/03/13 07:46:02;;;;;;;5.85;2.50;;;;;;;19.41;47.99;96007.34;10391272;28;20041;-77
2023/03/13 07:51:23;;;;;;;5.65;2.70;;;;;;;19.42;47.94;95998.88;10386889;28;20058;-77
2023/03/13 07:56:43;;;;;;;6.50;2.60;;;;;;;19.47;47.82;95985.13;10374760;28;20050;-77
2023/03/13 08:02:03;;;;;;;5.25;2.72;;;;;;;19.50;47.92;95973.66;10389551;28;20053;-77
2023/03/13 08:07:23;;;;;;;7.18;2.63;;;;;;;19.52;47.80;95965.97;10375738;28;20038;-77
2023/03/13 08:12:42;;;;;;;7.15;3.00;;;;;;;19.55;47.55;95945.59;10390220;28;20514;-77
2023/03/13 08:18:01;;;;;;;4.72;2.60;;;;;;;19.58;47.79;95938.69;10375257;28;20048;-76
2023/03/13 08:23:21;;;;;;;5.82;2.70;;;;;;;19.61;47.60;95940.72;10389809;28;20050;-76
2023/03/13 08:28:41;;;;;;;4.47;2.58;;;;;;;19.64;47.70;95934.63;10388705;28;20037;-76
2023/03/13 08:34:02;;;;;;;5.03;2.30;;;;;;;19.67;47.54;95939.34;10374812;28;20422;-77
2023/03/13 08:39:21;;;;;;;3.63;1.90;;;;;;;19.69;47.58;95916.25;10374382;28;20382;-77
2023/03/13 08:44:41;;;;;;;5.60;2.20;;;;;;;19.72;47.87;95901.31;10374101;28;20049;-77
2023/03/13 08:50:00;;;;;;;16.98;10.07;;;;;;;19.76;47.85;95899.47;10388386;28;20096;-77
2023/03/13 08:55:20;;;;;;;16.08;10.40;;;;;;;19.78;47.54;95901.81;10387654;28;20046;-77
2023/03/13 09:00:39;;;;;;;15.57;9.93;;;;;;;19.80;47.73;95916.56;10388407;28;20545;-77
2023/03/13 09:05:59;;;;;;;16.95;9.60;;;;;;;19.83;48.00;95902.34;10373108;28;20041;-77
2023/03/13 09:11:20;;;;;;;14.05;8.68;;;;;;;19.86;47.68;95874.63;10387021;28;20050;-77
2023/03/13 09:16:40;;;;;;;13.10;8.15;;;;;;;19.89;47.72;95892.84;10373109;28;20052;-77
2023/03/13 09:22:00;;;;;;;11.68;7.53;;;;;;;19.91;47.66;95889.78;10387572;28;20125;-77
2023/03/13 09:27:20;;;;;;;11.80;7.10;;;;;;;19.93;47.41;95882.94;10372943;28;20116;-77
2023/03/13 09:32:39;;;;;;;12.15;6.97;;;;;;;19.95;47.47;95891.47;10387336;28;20046;-77
2023/03/13 09:37:58;;;;;;;11.07;7.07;;;;;;;19.99;47.41;95888.06;10387306;28;20048;-77
2023/03/13 09:43:36;;;;;;;11.05;6.57;;;;;;;20.00;47.40;95887.72;10372577;28;20494;-78
2023/03/13 09:49:03;;;;;;;9.38;6.13;;;;;;;20.03;47.46;95887.03;10386805;28;20042;-77
2023/03/13 09:55:40;;;;;;;9.25;6.18;;;;;;;20.05;47.45;95867.72;10503239;22;20222;-48
2023/03/13 10:01:03;;;;;;;8.88;5.80;;;;;;;20.07;47.43;95849.25;10477280;28;20052;-50
2023/03/13 10:06:23;;;;;;;10.23;5.93;;;;;;;20.09;47.45;95844.25;10477621;28;20439;-48
2023/03/13 10:12:20;;;;;;;8.27;5.30;;;;;;;20.11;47.25;95850.91;10505619;28;20454;-46
2023/03/13 10:17:39;;;;;;;9.15;5.57;;;;;;;20.15;47.21;95859.13;10488750;28;20439;-49
2023/03/13 10:23:11;;;;;;;7.60;5.50;;;;;;;20.17;47.09;95859.53;10505136;28;20053;-50
2023/03/13 10:28:31;;;;;;;7.40;5.07;;;;;;;20.20;47.13;95839.91;10476421;28;20056;-47
2023/03/13 10:33:50;;;;;;;7.95;5.18;;;;;;;20.21;47.25;95835.25;10491222;28;20048;-48
2023/03/13 10:39:19;;;;;;;9.80;5.68;;;;;;;20.23;47.22;95814.06;10490813;28;20052;-47
2023/03/13 10:44:38;;;;;;;7.05;4.70;;;;;;;20.23;47.13;95828.38;10475523;28;20103;-48
2023/03/13 10:50:03;;;;;;;8.60;5.28;;;;;;;20.24;47.19;95829.16;10490494;28;20060;-49
2023/03/13 10:55:24;;;;;;;6.72;4.95;;;;;;;20.25;47.15;95818.00;10489465;28;20056;-49
2023/03/13 11:00:44;;;;;;;6.20;4.70;;;;;;;20.28;47.07;95835.44;10503254;28;20041;-49
2023/03/13 11:06:03;;;;;;;6.75;4.65;;;;;;;20.28;47.00;95822.69;10452272;28;20053;-49
2023/03/13 11:11:29;;;;;;;6.40;4.53;;;;;;;20.27;47.05;95817.66;10462035;28;20053;-48
2023/03/13 11:17:03;;;;;;;6.72;4.47;;;;;;;20.28;47.10;95808.38;10475083;28;20052;-49
2023/03/13 11:22:41;;;;;;;7.75;4.90;;;;;;;20.27;47.02;95788.69;10461728;28;20053;-46
2023/03/13 11:28:27;;;;;;;5.70;4.35;;;;;;;20.27;46.91;95777.09;10446637;28;20052;-47
2023/03/13 11:33:49;;;;;;;5.78;4.10;;;;;;;20.27;47.14;95768.97;10461583;28;20049;-46
2023/03/13 11:39:33;;;;;;;5.65;4.40;;;;;;;20.26;47.26;95760.06;10461246;28;20053;-51
2023/03/13 11:45:10;;;;;;;6.43;4.40;;;;;;;20.27;46.95;95744.63;10446076;28;20389;-47
2023/03/13 11:50:34;;;;;;;6.30;4.22;;;;;;;20.26;46.87;95749.22;10445769;28;20056;-48
2023/03/13 11:56:02;;;;;;;5.75;3.80;;;;;;;20.26;46.72;95743.81;10459713;28;20061;-49
2023/03/13 12:01:27;;;;;;;5.50;3.85;;;;;;;20.26;46.69;95764.69;10460226;28;20056;-50
2023/03/13 12:06:53;;;;;;;7.18;4.15;;;;;;;20.26;46.72;95754.66;10460065;28;20053;-46
2023/03/13 12:12:24;;;;;;;5.30;4.00;;;;;;;20.25;46.73;95761.22;10459732;28;20045;-47
2023/03/13 12:17:56;;;;;;;6.47;3.75;;;;;;;20.24;46.40;95775.84;10458750;28;20057;-48
2023/03/13 12:23:27;;;;;;;5.28;3.65;;;;;;;20.23;46.09;95778.91;10472636;28;20044;-49
2023/03/13 12:29:05;;;;;;;5.07;3.60;;;;;;;20.23;46.19;95779.72;10443764;28;20061;-48
2023/03/13 12:34:24;;;;;;;5.00;2.97;;;;;;;20.21;46.23;95784.69;10443703;28;20501;-49
2023/03/13 12:39:52;;;;;;;4.55;3.28;;;;;;;20.21;46.27;95768.47;10458273;28;20048;-50
2023/03/13 12:45:17;;;;;;;4.38;3.05;;;;;;;20.20;46.39;95747.94;10458075;28;20537;-46
2023/03/13 12:50:39;;;;;;;4.13;3.05;;;;;;;20.20;46.49;95752.59;10458650;28;20049;-49
2023/03/13 12:56:12;;;;;;;4.60;2.88;;;;;;;20.20;46.61;95749.88;10457729;28;20053;-50
2023/03/13 13:01:39;;;;;;;2.88;2.50;;;;;;;20.21;47.17;95737.91;10457809;28;20049;-49
2023/03/13 13:07:04;;;;;;;3.63;2.70;;;;;;;20.20;47.35;95750.66;10457713;28;20053;-49
2023/03/13 13:12:25;;;;;;;39.33;8.85;;;;;;;20.20;47.53;95742.53;10457406;28;20052;-47
2023/03/13 13:17:50;;;;;;;12.63;5.32;;;;;;;20.20;48.58;95739.84;10442919;28;20063;-49
2023/03/13 13:23:32;;;;;;;11.73;5.38;;;;;;;20.19;49.03;95746.41;10456953;28;20458;-49
2023/03/13 13:28:53;;;;;;;7.07;3.65;;;;;;;20.20;50.47;95745.25;10457086;28;20056;-48
2023/03/13 13:34:59;;;;;;;8.68;3.60;;;;;;;20.20;50.53;95750.66;10457398;28;20397;-49
2023/03/13 13:40:30;;;;;;;8.43;3.60;;;;;;;20.20;50.03;95745.25;10456730;28;20053;-49
2023/03/13 13:46:19;;;;;;;7.10;3.20;;;;;;;20.17;50.14;95737.84;10455919;28;20053;-49
2023/03/13 13:51:39;;;;;;;6.68;3.30;;;;;;;20.15;49.77;95743.63;10456169;28;20041;-47
2023/03/13 13:57:21;;;;;;;7.82;3.28;;;;;;;20.14;49.84;95739.31;10441248;28;20056;-50
2023/03/13 14:02:55;;;;;;;6.65;3.30;;;;;;;20.13;49.78;95745.09;10456397;28;20045;-49
2023/03/13 14:08:29;;;;;;;6.90;3.28;;;;;;;20.11;49.63;95737.34;10469327;28;20091;-49
2023/03/13 14:14:17;;;;;;;7.20;3.40;;;;;;;20.11;49.68;95714.91;10440548;28;20053;-49
2023/03/13 14:19:40;;;;;;;6.05;3.10;;;;;;;20.10;49.46;95719.53;10456177;28;20056;-47
2023/03/13 14:25:00;;;;;;;5.57;2.78;;;;;;;20.08;49.56;95707.53;10455278;28;20492;-49
2023/03/13 14:30:20;;;;;;;4.88;2.88;;;;;;;20.06;49.42;95696.28;10469581;28;20037;-49
2023/03/13 14:35:40;;;;;;;3.50;2.53;;;;;;;20.05;49.38;95683.88;10455326;28;20404;-49
2023/03/13 14:41:00;;;;;;;6.90;2.95;;;;;;;20.05;49.30;95673.06;10445321;28;20516;-48
2023/03/13 14:46:29;;;;;;;6.72;3.00;;;;;;;20.05;49.29;95651.44;10462585;28;20497;-48
2023/03/13 14:52:05;;;;;;;3.88;2.53;;;;;;;20.05;48.87;95646.03;10447399;28;20057;-49
2023/03/13 14:57:28;;;;;;;7.32;2.90;;;;;;;20.02;49.05;95655.66;10448574;28;20118;-50
2023/03/13 15:02:48;;;;;;;4.50;2.47;;;;;;;20.02;49.13;95673.81;10462726;28;20073;-48
2023/03/13 15:08:16;;;;;;;5.45;2.60;;;;;;;20.01;49.04;95656.78;10462475;28;20064;-47
2023/03/13 15:13:36;;;;;;;6.60;2.80;;;;;;;20.00;48.88;95640.94;10462725;28;20045;-48
2023/03/13 15:18:55;;;;;;;5.22;2.80;;;;;;;19.99;49.02;95626.63;10461970;28;20123;-47
2023/03/13 15:24:15;;;;;;;4.95;2.83;;;;;;;19.97;48.94;95615.38;10461736;28;20053;-46
2023/03/13 15:29:34;;;;;;;8.05;2.97;;;;;;;19.97;48.88;95611.88;10475265;28;20037;-49
2023/03/13 15:34:57;;;;;;;7.53;3.53;;;;;;;19.95;48.98;95602.22;10460780;28;20509;-47
2023/03/13 15:40:17;;;;;;;6.63;3.10;;;;;;;19.94;48.87;95581.72;10461320;28;20398;-50
2023/03/13 15:45:38;;;;;;;7.00;3.15;;;;;;;19.93;48.82;95569.38;10474220;28;20045;-47
2023/03/13 15:51:01;;;;;;;9.13;3.60;;;;;;;19.93;48.91;95563.97;10474308;28;20055;-49
2023/03/13 15:56:22;;;;;;;11.23;4.35;;;;;;;19.92;48.92;95562.38;10460389;28;20049;-47
2023/03/13 16:01:43;;;;;;;12.10;4.22;;;;;;;19.91;48.95;95550.00;10460743;28;20053;-47
2023/03/13 16:07:08;;;;;;;11.38;3.67;;;;;;;19.91;48.81;95560.03;10459402;28;20496;-47
2023/03/13 16:12:27;;;;;;;12.48;4.15;;;;;;;19.89;48.84;95567.72;10459648;28;20061;-48
2023/03/13 16:17:47;;;;;;;11.35;4.22;;;;;;;19.89;48.84;95570.41;10459823;28;20057;-49
2023/03/13 16:23:06;;;;;;;9.75;3.45;;;;;;;19.88;48.79;95558.84;10459615;28;20055;-48
2023/03/13 16:28:26;;;;;;;11.23;3.60;;;;;;;19.87;48.79;95542.97;10459383;28;20122;-49
2023/03/13 16:33:46;;;;;;;11.43;3.50;;;;;;;19.85;48.83;95550.66;10458269;28;20570;-47
2023/03/13 16:39:10;;;;;;;9.93;3.70;;;;;;;19.83;48.73;95548.31;10458817;28;20465;-46
2023/03/13 16:44:29;;;;;;;10.10;4.07;;;;;;;19.84;48.84;95551.81;10443546;28;20052;-47
2023/03/13 16:49:49;;;;;;;7.63;3.00;;;;;;;19.83;48.65;95540.19;10438964;28;20068;-48
2023/03/13 16:55:08;;;;;;;8.82;3.63;;;;;;;19.82;48.81;95543.28;10460048;28;20057;-48
2023/03/13 17:00:30;;;;;;;7.40;3.33;;;;;;;19.80;48.46;95534.72;10454300;28;20060;-48
2023/03/13 17:05:49;;;;;;;8.40;3.45;;;;;;;19.79;49.03;95535.88;10457755;28;20049;-48
2023/03/13 17:11:11;;;;;;;7.85;3.42;;;;;;;19.78;49.31;95518.88;10457373;28;20102;-47
2023/03/13 17:16:33;;;;;;;8.95;3.47;;;;;;;19.77;49.58;95497.59;10449780;28;20088;-49
2023/03/13 17:21:52;;;;;;;5.53;3.15;;;;;;;19.77;49.86;95501.09;10434967;28;20052;-52
2023/03/13 17:27:13;;;;;;;9.15;2.83;;;;;;;19.76;49.87;95494.13;10446021;28;20378;-49
2023/03/13 17:32:33;;;;;;;8.20;3.15;;;;;;;19.76;49.74;95494.13;10433227;28;20045;-52
2023/03/13 17:37:52;;;;;;;7.00;2.72;;;;;;;19.76;50.12;95488.72;10429082;28;20061;-49
2023/03/13 17:43:12;;;;;;;5.38;2.72;;;;;;;19.74;50.25;95496.41;10415554;28;20053;-52
2023/03/13 17:48:31;;;;;;;6.85;2.97;;;;;;;19.73;50.12;95473.22;10434569;28;20486;-56
2023/03/13 17:53:52;;;;;;;5.55;2.53;;;;;;;19.73;50.24;95462.41;10434505;28;20103;-55
2023/03/13 17:59:14;;;;;;;5.95;2.45;;;;;;;19.72;50.15;95450.06;10446758;28;20033;-55
2023/03/13 18:04:34;;;;;;;6.30;2.50;;;;;;;19.70;50.17;95438.78;10435158;28;20042;-55
2023/03/13 18:09:53;;;;;;;4.43;2.53;;;;;;;19.69;50.17;95429.88;10435043;28;20058;-51
2023/03/13 18:15:13;;;;;;;4.00;2.50;;;;;;;19.68;49.97;95432.94;10452721;28;20041;-51
2023/03/13 18:20:32;;;;;;;5.03;2.58;;;;;;;19.66;50.03;95427.91;10443216;28;20123;-50
2023/03/13 18:25:52;;;;;;;5.40;2.35;;;;;;;19.65;49.89;95423.63;10442902;28;20056;-55
2023/03/13 18:31:11;;;;;;;4.63;2.58;;;;;;;19.64;49.90;95416.69;10442015;28;20060;-56
2023/03/13 18:36:31;;;;;;;6.50;2.60;;;;;;;19.63;49.85;95414.34;10441726;28;20053;-52
2023/03/13 18:41:51;;;;;;;11.55;2.42;;;;;;;19.63;49.97;95414.34;10440864;28;20103;-49
2023/03/13 18:47:13;;;;;;;4.00;2.22;;;;;;;19.61;49.83;95397.72;10441703;28;20052;-49
2023/03/13 18:52:32;;;;;;;4.95;2.33;;;;;;;19.61;49.93;95403.09;10452332;28;20057;-56
2023/03/13 18:57:52;;;;;;;4.05;2.17;;;;;;;19.60;50.15;95390.72;10463149;28;20060;-50
2023/03/13 19:03:12;;;;;;;6.95;2.20;;;;;;;19.59;49.98;95372.97;10463063;28;20067;-46
2023/03/13 19:08:31;;;;;;;3.67;2.00;;;;;;;19.59;50.15;95359.47;10462707;28;20060;-48
2023/03/13 19:13:50;;;;;;;4.25;2.17;;;;;;;19.58;50.35;95355.97;10462050;28;20053;-47
2023/03/13 19:19:12;;;;;;;5.07;2.50;;;;;;;19.58;50.53;95349.78;10461892;28;20053;-50
2023/03/13 19:24:31;;;;;;;4.65;2.28;;;;;;;19.56;50.49;95350.13;10460703;28;20554;-49
2023/03/13 19:29:51;;;;;;;5.45;2.13;;;;;;;19.55;50.61;95333.16;10461665;28;20066;-48
2023/03/13 19:35:17;;;;;;;3.55;2.17;;;;;;;19.55;50.60;95322.34;10461228;28;20051;-45
2023/03/13 19:40:37;;;;;;;5.82;2.10;;;;;;;19.55;50.74;95308.06;10460463;28;20103;-48
2023/03/13 19:45:56;;;;;;;4.63;2.30;;;;;;;19.54;50.58;95301.91;10460992;28;20451;-49
2023/03/13 19:51:15;;;;;;;6.30;2.17;;;;;;;19.53;50.31;95289.53;10459853;28;20570;-48
2023/03/13 19:56:36;;;;;;;4.40;2.20;;;;;;;19.52;50.63;95262.88;10460708;28;20060;-55
2023/03/13 20:01:56;;;;;;;4.00;2.10;;;;;;;19.52;50.65;95269.06;10460233;28;20057;-48
2023/03/13 20:07:16;;;;;;;3.35;1.73;;;;;;;19.51;50.62;95255.91;10460444;28;20110;-50
2023/03/13 20:12:35;;;;;;;4.75;2.30;;;;;;;19.50;50.58;95238.94;10460052;28;20083;-47
2023/03/13 20:17:55;;;;;;;4.07;2.50;;;;;;;19.48;49.51;95235.81;10459057;28;20053;-50
2023/03/13 20:23:15;;;;;;;5.10;2.90;;;;;;;19.43;48.16;95222.63;10469548;28;20517;-49
2023/03/13 20:28:40;;;;;;;3.97;2.60;;;;;;;19.40;47.83;95219.84;10472787;28;20048;-49
2023/03/13 20:33:59;;;;;;;4.97;2.28;;;;;;;19.40;49.33;95217.16;10441497;28;20049;-54
2023/03/13 20:39:19;;;;;;;3.88;2.20;;;;;;;19.41;49.82;95202.50;10457717;28;20056;-50
2023/03/13 20:44:39;;;;;;;4.80;2.70;;;;;;;19.41;49.96;95207.91;10458535;28;20057;-51
2023/03/13 20:49:59;;;;;;;4.93;2.28;;;;;;;19.42;50.18;95209.47;10458543;28;20056;-49
2023/03/13 20:55:18;;;;;;;5.72;2.50;;;;;;;19.42;50.29;95198.66;10446287;28;20063;-50
2023/03/13 21:00:37;;;;;;;4.00;2.40;;;;;;;19.41;50.50;95192.50;10440443;28;20064;-49
2023/03/13 21:05:57;;;;;;;4.35;2.40;;;;;;;19.41;50.50;95187.09;10457652;28;20390;-49
2023/03/13 21:11:19;;;;;;;4.07;2.28;;;;;;;19.42;50.40;95172.44;10457397;28;20059;-50
2023/03/13 21:16:39;;;;;;;5.53;2.45;;;;;;;19.40;50.56;95155.03;10457353;28;20064;-52
2023/03/13 21:21:58;;;;;;;3.88;2.30;;;;;;;19.41;50.77;95148.50;10457826;28;20049;-53
2023/03/13 21:27:18;;;;;;;4.65;2.10;;;;;;;19.41;50.64;95138.47;10440489;28;20505;-51
2023/03/13 21:32:38;;;;;;;5.75;2.17;;;;;;;19.40;50.72;95115.31;10415065;28;20505;-50
2023/03/13 21:37:57;;;;;;;4.70;2.33;;;;;;;19.39;50.59;95102.97;10438713;28;20045;-51
2023/03/13 21:43:16;;;;;;;3.80;2.13;;;;;;;19.39;50.54;95094.09;10433765;28;20049;-51
2023/03/13 21:48:37;;;;;;;3.90;2.13;;;;;;;19.37;50.64;95075.53;10425715;28;20076;-49
2023/03/13 21:53:57;;;;;;;5.72;2.15;;;;;;;19.36;50.49;95073.97;10414259;28;20062;-50
2023/03/13 21:59:17;;;;;;;5.53;2.20;;;;;;;19.35;50.53;95054.31;10414557;28;20493;-50
2023/03/13 22:04:36;;;;;;;3.67;2.20;;;;;;;19.33;50.63;95035.00;10414968;28;20054;-50
2023/03/13 22:09:56;;;;;;;3.10;2.20;;;;;;;19.32;50.63;95032.66;10414199;28;20532;-51
2023/03/13 22:15:16;;;;;;;6.22;2.20;;;;;;;19.32;50.68;95029.94;10414862;28;20045;-50
2023/03/13 22:20:36;;;;;;;4.07;2.13;;;;;;;19.31;50.58;95006.81;10414898;28;20076;-51
2023/03/13 22:25:56;;;;;;;4.22;1.98;;;;;;;19.29;50.62;94985.56;10414610;28;20061;-51
2023/03/13 22:31:15;;;;;;;4.32;2.17;;;;;;;19.30;50.65;95024.13;10414235;28;20049;-50
2023/03/13 22:36:36;;;;;;;3.60;1.83;;;;;;;19.29;50.78;95060.38;10414375;28;20103;-52
2023/03/13 22:41:56;;;;;;;2.72;1.83;;;;;;;19.29;50.93;95073.88;10427629;28;20413;-52
2023/03/13 22:47:15;;;;;;;4.18;1.90;;;;;;;19.27;50.77;95041.06;10414386;28;20416;-52
2023/03/13 22:52:34;;;;;;;2.97;2.08;;;;;;;19.27;50.80;95020.25;10413464;28;20559;-50
2023/03/13 22:57:54;;;;;;;3.47;2.20;;;;;;;19.26;50.84;95020.59;10414013;28;20054;-51
2023/03/13 23:03:13;;;;;;;2.72;2.00;;;;;;;19.24;50.81;95015.56;10434099;28;20045;-52
2023/03/13 23:08:34;;;;;;;3.90;1.92;;;;;;;19.24;50.50;95058.00;10421335;28;20049;-50
2023/03/13 23:13:54;;;;;;;4.43;2.25;;;;;;;19.24;50.76;95118.16;10420904;28;20126;-50
2023/03/13 23:19:13;;;;;;;2.92;1.60;;;;;;;19.23;50.78;95105.81;10434023;28;20047;-51
2023/03/13 23:24:33;;;;;;;3.08;1.70;;;;;;;19.22;50.80;95114.28;10420538;28;20057;-51
2023/03/13 23:29:53;;;;;;;2.55;1.70;;;;;;;19.21;50.80;95123.50;10420396;28;20104;-49
2023/03/13 23:35:15;;;;;;;2.88;1.85;;;;;;;19.20;50.76;95130.06;10420018;28;20183;-52
2023/03/13 23:40:35;;;;;;;2.85;1.80;;;;;;;19.19;50.97;95134.69;10419648;28;20494;-51
2023/03/13 23:45:54;;;;;;;3.38;2.08;;;;;;;19.16;50.78;95125.38;10432829;28;20045;-51
2023/03/13 23:51:14;;;;;;;3.15;1.80;;;;;;;19.17;50.87;95118.84;10432200;28;20091;-49
2023/03/13 23:56:33;;;;;;;1.85;1.55;;;;;;;19.16;50.84;95138.09;10418923;28;20064;-50
